sensor_id;sensor_type;location;lat;lon;timestamp;P1;durP1;ratioP1;P2;durP2;ratioP2
46941;SDS011;32676;52.630;4.896;2022-12-11T00:00:26;82.10;;;33.28;;
46941;SDS011;32676;52.630;4.896;2022-12-11T00:02:52;63.13;;;27.55;;
46941;SDS011;32676;52.630;4.896;2022-12-11T00:05:20;62.60;;;28.67;;
46941;SDS011;32676;52.630;4.896;2022-12-11T00:07:47;73.82;;;31.38;;
46941;SDS011;32676;52.630;4.896;2022-12-11T00:10:13;77.07;;;27.77;;
46941;SDS011;32676;52.630;4.896;2022-12-11T00:12:40;69.03;;;27.45;;
46941;SDS011;32676;52.630;4.896;2022-12-11T00:15:08;60.13;;;27.15;;
46941;SDS011;32676;52.630;4.896;2022-12-11T00:17:35;66.20;;;28.85;;
46941;SDS011;32676;52.630;4.896;2022-12-11T00:20:02;68.32;;;26.90;;
46941;SDS011;32676;52.630;4.896;2022-12-11T00:22:29;75.30;;;29.65;;
46941;SDS011;32676;52.630;4.896;2022-12-11T00:24:55;61.95;;;25.55;;
46941;SDS011;32676;52.630;4.896;2022-12-11T00:27:22;59.10;;;28.33;;
46941;SDS011;32676;52.630;4.896;2022-12-11T00:29:49;55.67;;;27.60;;
46941;SDS011;32676;52.630;4.896;2022-12-11T00:32:17;67.85;;;27.60;;
46941;SDS011;32676;52.630;4.896;2022-12-11T00:34:43;52.45;;;25.73;;
46941;SDS011;32676;52.630;4.896;2022-12-11T00:37:09;55.05;;;25.73;;
46941;SDS011;32676;52.630;4.896;2022-12-11T00:39:36;58.45;;;25.25;;
46941;SDS011;32676;52.630;4.896;2022-12-11T00:42:03;53.35;;;26.23;;
46941;SDS011;32676;52.630;4.896;2022-12-11T00:44:30;49.58;;;24.08;;
46941;SDS011;32676;52.630;4.896;2022-12-11T00:46:56;59.08;;;24.40;;
46941;SDS011;32676;52.630;4.896;2022-12-11T00:49:24;45.67;;;22.48;;
46941;SDS011;32676;52.630;4.896;2022-12-11T00:51:51;47.40;;;22.55;;
46941;SDS011;32676;52.630;4.896;2022-12-11T00:54:17;46.20;;;22.27;;
46941;SDS011;32676;52.630;4.896;2022-12-11T00:56:44;51.70;;;25.17;;
46941;SDS011;32676;52.630;4.896;2022-12-11T00:59:10;47.08;;;24.45;;
46941;SDS011;32676;52.630;4.896;2022-12-11T01:01:37;47.20;;;22.77;;
46941;SDS011;32676;52.630;4.896;2022-12-11T01:04:04;44.67;;;22.65;;
46941;SDS011;32676;52.630;4.896;2022-12-11T01:06:32;42.33;;;23.40;;
46941;SDS011;32676;52.630;4.896;2022-12-11T01:08:58;43.67;;;22.58;;
46941;SDS011;32676;52.630;4.896;2022-12-11T01:11:43;45.10;;;23.50;;
46941;SDS011;32676;52.630;4.896;2022-12-11T01:14:09;47.00;;;23.45;;
46941;SDS011;32676;52.630;4.896;2022-12-11T01:16:36;44.35;;;23.33;;
46941;SDS011;32676;52.630;4.896;2022-12-11T01:19:03;46.05;;;22.35;;
46941;SDS011;32676;52.630;4.896;2022-12-11T01:21:29;45.63;;;22.45;;
46941;SDS011;32676;52.630;4.896;2022-12-11T01:23:58;54.47;;;25.52;;
46941;SDS011;32676;52.630;4.896;2022-12-11T01:26:24;52.42;;;22.50;;
46941;SDS011;32676;52.630;4.896;2022-12-11T01:28:51;45.60;;;22.30;;
46941;SDS011;32676;52.630;4.896;2022-12-11T01:31:20;49.33;;;23.00;;
46941;SDS011;32676;52.630;4.896;2022-12-11T01:33:47;42.78;;;21.27;;
46941;SDS011;32676;52.630;4.896;2022-12-11T01:36:14;44.88;;;23.23;;
46941;SDS011;32676;52.630;4.896;2022-12-11T01:38:43;45.83;;;22.67;;
46941;SDS011;32676;52.630;4.896;2022-12-11T01:41:11;40.55;;;21.38;;
46941;SDS011;32676;52.630;4.896;2022-12-11T01:43:54;44.83;;;21.85;;
46941;SDS011;32676;52.630;4.896;2022-12-11T01:46:22;46.17;;;21.77;;
46941;SDS011;32676;52.630;4.896;2022-12-11T01:48:48;47.38;;;22.35;;
46941;SDS011;32676;52.630;4.896;2022-12-11T01:51:15;36.88;;;20.08;;
46941;SDS011;32676;52.630;4.896;2022-12-11T01:53:42;46.90;;;20.48;;
46941;SDS011;32676;52.630;4.896;2022-12-11T01:56:15;41.10;;;19.70;;
46941;SDS011;32676;52.630;4.896;2022-12-11T01:58:42;40.38;;;20.90;;
46941;SDS011;32676;52.630;4.896;2022-12-11T02:01:16;43.45;;;20.95;;
46941;SDS011;32676;52.630;4.896;2022-12-11T02:03:47;41.67;;;20.67;;
46941;SDS011;32676;52.630;4.896;2022-12-11T02:06:28;43.15;;;20.30;;
46941;SDS011;32676;52.630;4.896;2022-12-11T02:08:57;35.15;;;18.58;;
46941;SDS011;32676;52.630;4.896;2022-12-11T02:11:27;38.83;;;20.23;;
46941;SDS011;32676;52.630;4.896;2022-12-11T02:14:00;37.08;;;18.75;;
46941;SDS011;32676;52.630;4.896;2022-12-11T02:16:32;38.30;;;20.20;;
46941;SDS011;32676;52.630;4.896;2022-12-11T02:19:07;36.30;;;19.25;;
46941;SDS011;32676;52.630;4.896;2022-12-11T02:21:47;41.10;;;20.52;;
46941;SDS011;32676;52.630;4.896;2022-12-11T02:27:22;33.45;;;18.15;;
46941;SDS011;32676;52.630;4.896;2022-12-11T02:29:59;33.65;;;17.00;;
46941;SDS011;32676;52.630;4.896;2022-12-11T02:32:29;35.53;;;18.75;;
46941;SDS011;32676;52.630;4.896;2022-12-11T02:35:03;36.78;;;19.35;;
46941;SDS011;32676;52.630;4.896;2022-12-11T02:37:35;30.40;;;16.20;;
46941;SDS011;32676;52.630;4.896;2022-12-11T02:40:05;29.48;;;17.35;;
46941;SDS011;32676;52.630;4.896;2022-12-11T02:42:36;37.97;;;18.88;;
46941;SDS011;32676;52.630;4.896;2022-12-11T02:45:07;32.28;;;16.92;;
46941;SDS011;32676;52.630;4.896;2022-12-11T02:47:36;42.97;;;18.63;;
46941;SDS011;32676;52.630;4.896;2022-12-11T02:50:06;33.75;;;16.88;;
46941;SDS011;32676;52.630;4.896;2022-12-11T02:52:36;36.13;;;19.48;;
46941;SDS011;32676;52.630;4.896;2022-12-11T02:55:06;36.35;;;17.55;;
46941;SDS011;32676;52.630;4.896;2022-12-11T02:57:36;34.33;;;18.88;;
46941;SDS011;32676;52.630;4.896;2022-12-11T03:00:10;34.20;;;18.38;;
46941;SDS011;32676;52.630;4.896;2022-12-11T03:02:38;38.42;;;19.45;;
46941;SDS011;32676;52.630;4.896;2022-12-11T03:05:06;33.42;;;17.55;;
46941;SDS011;32676;52.630;4.896;2022-12-11T03:07:35;34.92;;;20.17;;
46941;SDS011;32676;52.630;4.896;2022-12-11T03:10:05;32.60;;;16.17;;
46941;SDS011;32676;52.630;4.896;2022-12-11T03:12:35;34.20;;;17.30;;
46941;SDS011;32676;52.630;4.896;2022-12-11T03:15:06;26.90;;;15.23;;
46941;SDS011;32676;52.630;4.896;2022-12-11T03:17:37;29.00;;;15.73;;
46941;SDS011;32676;52.630;4.896;2022-12-11T03:20:12;32.88;;;17.50;;
46941;SDS011;32676;52.630;4.896;2022-12-11T03:22:47;36.83;;;20.77;;
46941;SDS011;32676;52.630;4.896;2022-12-11T03:25:19;38.22;;;19.23;;
46941;SDS011;32676;52.630;4.896;2022-12-11T03:27:52;42.20;;;19.02;;
46941;SDS011;32676;52.630;4.896;2022-12-11T03:30:23;35.60;;;19.27;;
46941;SDS011;32676;52.630;4.896;2022-12-11T03:32:53;28.83;;;16.05;;
46941;SDS011;32676;52.630;4.896;2022-12-11T03:35:23;32.97;;;16.05;;
46941;SDS011;32676;52.630;4.896;2022-12-11T03:37:53;28.50;;;16.00;;
46941;SDS011;32676;52.630;4.896;2022-12-11T03:40:21;24.90;;;14.18;;
46941;SDS011;32676;52.630;4.896;2022-12-11T03:42:51;25.13;;;14.52;;
46941;SDS011;32676;52.630;4.896;2022-12-11T03:45:19;24.92;;;13.18;;
46941;SDS011;32676;52.630;4.896;2022-12-11T03:47:47;26.67;;;15.10;;
46941;SDS011;32676;52.630;4.896;2022-12-11T03:50:17;29.77;;;14.50;;
46941;SDS011;32676;52.630;4.896;2022-12-11T03:52:45;26.02;;;14.38;;
46941;SDS011;32676;52.630;4.896;2022-12-11T03:55:13;26.55;;;14.90;;
46941;SDS011;32676;52.630;4.896;2022-12-11T03:57:42;27.25;;;16.00;;
46941;SDS011;32676;52.630;4.896;2022-12-11T04:00:09;25.25;;;13.48;;
46941;SDS011;32676;52.630;4.896;2022-12-11T04:02:39;28.00;;;14.75;;
46941;SDS011;32676;52.630;4.896;2022-12-11T04:05:06;27.45;;;14.77;;
46941;SDS011;32676;52.630;4.896;2022-12-11T04:07:34;27.60;;;15.95;;
46941;SDS011;32676;52.630;4.896;2022-12-11T04:10:01;26.45;;;14.63;;
46941;SDS011;32676;52.630;4.896;2022-12-11T04:12:28;30.50;;;16.02;;
46941;SDS011;32676;52.630;4.896;2022-12-11T04:14:54;28.70;;;15.25;;
46941;SDS011;32676;52.630;4.896;2022-12-11T04:17:26;30.75;;;15.00;;
46941;SDS011;32676;52.630;4.896;2022-12-11T04:20:10;30.25;;;16.27;;
46941;SDS011;32676;52.630;4.896;2022-12-11T04:22:56;26.08;;;15.30;;
46941;SDS011;32676;52.630;4.896;2022-12-11T04:25:40;30.13;;;16.08;;
46941;SDS011;32676;52.630;4.896;2022-12-11T04:28:07;32.22;;;15.55;;
46941;SDS011;32676;52.630;4.896;2022-12-11T04:30:33;32.40;;;15.60;;
46941;SDS011;32676;52.630;4.896;2022-12-11T04:33:00;34.95;;;15.70;;
46941;SDS011;32676;52.630;4.896;2022-12-11T04:35:26;32.60;;;17.55;;
46941;SDS011;32676;52.630;4.896;2022-12-11T04:37:54;30.58;;;16.63;;
46941;SDS011;32676;52.630;4.896;2022-12-11T04:40:22;35.70;;;18.90;;
46941;SDS011;32676;52.630;4.896;2022-12-11T04:42:49;31.65;;;17.77;;
46941;SDS011;32676;52.630;4.896;2022-12-11T04:45:15;33.28;;;18.55;;
46941;SDS011;32676;52.630;4.896;2022-12-11T04:47:42;33.00;;;18.70;;
46941;SDS011;32676;52.630;4.896;2022-12-11T04:50:10;30.55;;;16.73;;
46941;SDS011;32676;52.630;4.896;2022-12-11T04:52:38;33.90;;;17.30;;
46941;SDS011;32676;52.630;4.896;2022-12-11T04:55:07;34.83;;;17.50;;
46941;SDS011;32676;52.630;4.896;2022-12-11T04:57:34;36.95;;;17.83;;
46941;SDS011;32676;52.630;4.896;2022-12-11T05:00:00;38.85;;;20.50;;
46941;SDS011;32676;52.630;4.896;2022-12-11T05:02:28;38.65;;;18.23;;
46941;SDS011;32676;52.630;4.896;2022-12-11T05:04:55;36.35;;;19.77;;
46941;SDS011;32676;52.630;4.896;2022-12-11T05:07:21;39.15;;;21.33;;
46941;SDS011;32676;52.630;4.896;2022-12-11T05:09:48;40.95;;;22.02;;
46941;SDS011;32676;52.630;4.896;2022-12-11T05:12:16;33.13;;;17.98;;
46941;SDS011;32676;52.630;4.896;2022-12-11T05:14:42;31.50;;;17.33;;
46941;SDS011;32676;52.630;4.896;2022-12-11T05:17:09;31.52;;;17.67;;
46941;SDS011;32676;52.630;4.896;2022-12-11T05:19:35;36.50;;;18.75;;
46941;SDS011;32676;52.630;4.896;2022-12-11T05:22:02;33.65;;;17.65;;
46941;SDS011;32676;52.630;4.896;2022-12-11T05:24:28;34.13;;;18.75;;
46941;SDS011;32676;52.630;4.896;2022-12-11T05:26:54;33.67;;;18.27;;
46941;SDS011;32676;52.630;4.896;2022-12-11T05:29:22;30.70;;;16.63;;
46941;SDS011;32676;52.630;4.896;2022-12-11T05:31:49;29.65;;;16.60;;
46941;SDS011;32676;52.630;4.896;2022-12-11T05:34:15;30.60;;;16.70;;
46941;SDS011;32676;52.630;4.896;2022-12-11T05:36:41;30.23;;;16.45;;
46941;SDS011;32676;52.630;4.896;2022-12-11T05:39:09;31.35;;;17.25;;
46941;SDS011;32676;52.630;4.896;2022-12-11T05:41:37;34.10;;;16.83;;
46941;SDS011;32676;52.630;4.896;2022-12-11T05:44:04;34.28;;;18.80;;
46941;SDS011;32676;52.630;4.896;2022-12-11T05:46:32;29.73;;;16.85;;
46941;SDS011;32676;52.630;4.896;2022-12-11T05:49:00;30.60;;;15.50;;
46941;SDS011;32676;52.630;4.896;2022-12-11T05:51:27;27.05;;;14.60;;
46941;SDS011;32676;52.630;4.896;2022-12-11T05:53:55;31.73;;;16.38;;
46941;SDS011;32676;52.630;4.896;2022-12-11T05:56:22;27.48;;;14.90;;
46941;SDS011;32676;52.630;4.896;2022-12-11T05:58:51;25.27;;;13.68;;
46941;SDS011;32676;52.630;4.896;2022-12-11T06:01:19;27.95;;;14.65;;
46941;SDS011;32676;52.630;4.896;2022-12-11T06:03:48;29.10;;;14.88;;
46941;SDS011;32676;52.630;4.896;2022-12-11T06:06:15;28.90;;;14.88;;
46941;SDS011;32676;52.630;4.896;2022-12-11T06:08:42;30.13;;;15.43;;
46941;SDS011;32676;52.630;4.896;2022-12-11T06:11:10;32.50;;;16.95;;
46941;SDS011;32676;52.630;4.896;2022-12-11T06:13:37;40.65;;;18.85;;
46941;SDS011;32676;52.630;4.896;2022-12-11T06:16:04;35.08;;;17.58;;
46941;SDS011;32676;52.630;4.896;2022-12-11T06:18:34;29.17;;;17.00;;
46941;SDS011;32676;52.630;4.896;2022-12-11T06:21:09;31.27;;;17.02;;
46941;SDS011;32676;52.630;4.896;2022-12-11T06:23:36;28.65;;;16.85;;
46941;SDS011;32676;52.630;4.896;2022-12-11T06:26:02;37.95;;;18.80;;
46941;SDS011;32676;52.630;4.896;2022-12-11T06:28:29;37.65;;;18.50;;
46941;SDS011;32676;52.630;4.896;2022-12-11T06:30:57;34.42;;;17.58;;
46941;SDS011;32676;52.630;4.896;2022-12-11T06:33:23;36.45;;;17.02;;
46941;SDS011;32676;52.630;4.896;2022-12-11T06:35:50;36.92;;;17.63;;
46941;SDS011;32676;52.630;4.896;2022-12-11T06:38:18;42.80;;;20.17;;
46941;SDS011;32676;52.630;4.896;2022-12-11T06:40:44;38.72;;;20.30;;
46941;SDS011;32676;52.630;4.896;2022-12-11T06:43:19;34.65;;;19.92;;
46941;SDS011;32676;52.630;4.896;2022-12-11T06:45:45;37.38;;;19.40;;
46941;SDS011;32676;52.630;4.896;2022-12-11T06:48:12;44.00;;;21.15;;
46941;SDS011;32676;52.630;4.896;2022-12-11T06:50:38;45.20;;;23.65;;
46941;SDS011;32676;52.630;4.896;2022-12-11T06:53:05;44.15;;;22.38;;
46941;SDS011;32676;52.630;4.896;2022-12-11T06:55:34;44.15;;;21.05;;
46941;SDS011;32676;52.630;4.896;2022-12-11T06:58:01;40.80;;;20.55;;
46941;SDS011;32676;52.630;4.896;2022-12-11T07:00:28;40.17;;;21.05;;
46941;SDS011;32676;52.630;4.896;2022-12-11T07:02:55;44.28;;;22.38;;
46941;SDS011;32676;52.630;4.896;2022-12-11T07:05:21;39.15;;;20.33;;
46941;SDS011;32676;52.630;4.896;2022-12-11T07:07:48;42.97;;;20.30;;
46941;SDS011;32676;52.630;4.896;2022-12-11T07:10:15;45.15;;;21.13;;
46941;SDS011;32676;52.630;4.896;2022-12-11T07:12:43;41.72;;;21.55;;
46941;SDS011;32676;52.630;4.896;2022-12-11T07:15:09;38.83;;;20.77;;
46941;SDS011;32676;52.630;4.896;2022-12-11T07:17:36;39.90;;;20.98;;
46941;SDS011;32676;52.630;4.896;2022-12-11T07:20:02;44.40;;;21.40;;
46941;SDS011;32676;52.630;4.896;2022-12-11T07:22:29;46.47;;;23.70;;
46941;SDS011;32676;52.630;4.896;2022-12-11T07:24:56;40.95;;;21.60;;
46941;SDS011;32676;52.630;4.896;2022-12-11T07:27:22;46.28;;;21.77;;
46941;SDS011;32676;52.630;4.896;2022-12-11T07:29:50;42.75;;;20.90;;
46941;SDS011;32676;52.630;4.896;2022-12-11T07:32:17;39.75;;;19.88;;
46941;SDS011;32676;52.630;4.896;2022-12-11T07:34:43;44.92;;;23.52;;
46941;SDS011;32676;52.630;4.896;2022-12-11T07:37:10;41.85;;;21.98;;
46941;SDS011;32676;52.630;4.896;2022-12-11T07:39:36;44.72;;;21.58;;
46941;SDS011;32676;52.630;4.896;2022-12-11T07:42:03;38.38;;;18.58;;
46941;SDS011;32676;52.630;4.896;2022-12-11T07:44:29;35.10;;;20.13;;
46941;SDS011;32676;52.630;4.896;2022-12-11T07:46:58;41.17;;;19.88;;
46941;SDS011;32676;52.630;4.896;2022-12-11T07:49:24;42.58;;;20.58;;
46941;SDS011;32676;52.630;4.896;2022-12-11T07:51:51;34.40;;;19.67;;
46941;SDS011;32676;52.630;4.896;2022-12-11T07:54:17;33.42;;;17.60;;
46941;SDS011;32676;52.630;4.896;2022-12-11T07:56:47;41.92;;;18.65;;
46941;SDS011;32676;52.630;4.896;2022-12-11T07:59:13;34.22;;;16.58;;
46941;SDS011;32676;52.630;4.896;2022-12-11T08:01:40;34.22;;;18.92;;
46941;SDS011;32676;52.630;4.896;2022-12-11T08:04:09;35.00;;;18.52;;
46941;SDS011;32676;52.630;4.896;2022-12-11T08:06:39;35.92;;;18.92;;
46941;SDS011;32676;52.630;4.896;2022-12-11T08:09:07;35.00;;;17.92;;
46941;SDS011;32676;52.630;4.896;2022-12-11T08:11:35;35.20;;;19.30;;
46941;SDS011;32676;52.630;4.896;2022-12-11T08:14:02;32.10;;;16.10;;
46941;SDS011;32676;52.630;4.896;2022-12-11T08:16:30;35.28;;;16.65;;
46941;SDS011;32676;52.630;4.896;2022-12-11T08:18:57;30.83;;;17.98;;
46941;SDS011;32676;52.630;4.896;2022-12-11T08:21:25;31.30;;;17.30;;
46941;SDS011;32676;52.630;4.896;2022-12-11T08:23:53;30.00;;;15.48;;
46941;SDS011;32676;52.630;4.896;2022-12-11T08:26:21;33.95;;;17.40;;
46941;SDS011;32676;52.630;4.896;2022-12-11T08:28:49;29.58;;;16.65;;
46941;SDS011;32676;52.630;4.896;2022-12-11T08:31:16;27.92;;;15.57;;
46941;SDS011;32676;52.630;4.896;2022-12-11T08:33:44;27.50;;;14.68;;
46941;SDS011;32676;52.630;4.896;2022-12-11T08:36:11;24.40;;;13.93;;
46941;SDS011;32676;52.630;4.896;2022-12-11T08:38:40;29.25;;;14.27;;
46941;SDS011;32676;52.630;4.896;2022-12-11T08:41:07;27.10;;;13.77;;
46941;SDS011;32676;52.630;4.896;2022-12-11T08:43:34;32.78;;;13.40;;
46941;SDS011;32676;52.630;4.896;2022-12-11T08:46:01;23.00;;;12.40;;
46941;SDS011;32676;52.630;4.896;2022-12-11T08:48:27;28.17;;;14.60;;
46941;SDS011;32676;52.630;4.896;2022-12-11T08:50:54;21.05;;;12.68;;
46941;SDS011;32676;52.630;4.896;2022-12-11T08:53:23;24.83;;;12.05;;
46941;SDS011;32676;52.630;4.896;2022-12-11T08:55:51;23.33;;;11.05;;
46941;SDS011;32676;52.630;4.896;2022-12-11T08:58:18;23.27;;;12.25;;
46941;SDS011;32676;52.630;4.896;2022-12-11T09:00:44;27.58;;;12.82;;
46941;SDS011;32676;52.630;4.896;2022-12-11T09:03:11;23.00;;;11.80;;
46941;SDS011;32676;52.630;4.896;2022-12-11T09:05:37;22.70;;;12.65;;
46941;SDS011;32676;52.630;4.896;2022-12-11T09:08:04;26.00;;;13.55;;
46941;SDS011;32676;52.630;4.896;2022-12-11T09:10:31;21.10;;;11.48;;
46941;SDS011;32676;52.630;4.896;2022-12-11T09:12:58;25.73;;;10.73;;
46941;SDS011;32676;52.630;4.896;2022-12-11T09:15:25;21.98;;;10.88;;
46941;SDS011;32676;52.630;4.896;2022-12-11T09:17:52;23.77;;;11.65;;
46941;SDS011;32676;52.630;4.896;2022-12-11T09:20:19;23.25;;;11.60;;
46941;SDS011;32676;52.630;4.896;2022-12-11T09:22:45;19.55;;;11.43;;
46941;SDS011;32676;52.630;4.896;2022-12-11T09:25:11;22.25;;;12.48;;
46941;SDS011;32676;52.630;4.896;2022-12-11T09:27:39;18.23;;;10.77;;
46941;SDS011;32676;52.630;4.896;2022-12-11T09:30:07;17.83;;;9.48;;
46941;SDS011;32676;52.630;4.896;2022-12-11T09:32:34;24.33;;;12.63;;
46941;SDS011;32676;52.630;4.896;2022-12-11T09:35:00;23.25;;;11.15;;
46941;SDS011;32676;52.630;4.896;2022-12-11T09:37:27;28.85;;;12.52;;
46941;SDS011;32676;52.630;4.896;2022-12-11T09:39:53;22.05;;;11.32;;
46941;SDS011;32676;52.630;4.896;2022-12-11T09:42:22;23.02;;;11.35;;
46941;SDS011;32676;52.630;4.896;2022-12-11T09:44:57;20.90;;;10.90;;
46941;SDS011;32676;52.630;4.896;2022-12-11T09:47:29;23.23;;;10.70;;
46941;SDS011;32676;52.630;4.896;2022-12-11T09:50:02;22.00;;;12.05;;
46941;SDS011;32676;52.630;4.896;2022-12-11T09:52:32;20.77;;;12.57;;
46941;SDS011;32676;52.630;4.896;2022-12-11T09:55:01;21.90;;;11.70;;
46941;SDS011;32676;52.630;4.896;2022-12-11T09:57:37;23.30;;;11.05;;
46941;SDS011;32676;52.630;4.896;2022-12-11T10:00:16;24.58;;;11.23;;
46941;SDS011;32676;52.630;4.896;2022-12-11T10:06:05;25.63;;;12.80;;
46941;SDS011;32676;52.630;4.896;2022-12-11T10:08:38;21.77;;;10.25;;
46941;SDS011;32676;52.630;4.896;2022-12-11T10:11:19;27.38;;;13.38;;
46941;SDS011;32676;52.630;4.896;2022-12-11T10:13:59;30.35;;;11.25;;
46941;SDS011;32676;52.630;4.896;2022-12-11T10:16:32;21.33;;;12.25;;
46941;SDS011;32676;52.630;4.896;2022-12-11T10:19:04;21.75;;;12.13;;
46941;SDS011;32676;52.630;4.896;2022-12-11T10:21:38;23.42;;;11.18;;
46941;SDS011;32676;52.630;4.896;2022-12-11T10:24:09;20.88;;;10.75;;
46941;SDS011;32676;52.630;4.896;2022-12-11T10:26:43;23.55;;;12.18;;
46941;SDS011;32676;52.630;4.896;2022-12-11T10:29:12;21.75;;;10.93;;
46941;SDS011;32676;52.630;4.896;2022-12-11T10:31:41;22.13;;;10.88;;
46941;SDS011;32676;52.630;4.896;2022-12-11T10:34:15;23.23;;;12.57;;
46941;SDS011;32676;52.630;4.896;2022-12-11T10:36:54;22.40;;;10.93;;
46941;SDS011;32676;52.630;4.896;2022-12-11T10:39:21;24.27;;;12.35;;
46941;SDS011;32676;52.630;4.896;2022-12-11T10:41:48;21.52;;;12.73;;
46941;SDS011;32676;52.630;4.896;2022-12-11T10:44:17;20.77;;;10.30;;
46941;SDS011;32676;52.630;4.896;2022-12-11T10:46:45;22.65;;;12.18;;
46941;SDS011;32676;52.630;4.896;2022-12-11T10:49:22;21.92;;;12.10;;
46941;SDS011;32676;52.630;4.896;2022-12-11T10:51:50;21.58;;;11.13;;
46941;SDS011;32676;52.630;4.896;2022-12-11T10:54:28;26.02;;;12.35;;
46941;SDS011;32676;52.630;4.896;2022-12-11T10:56:56;23.15;;;11.25;;
46941;SDS011;32676;52.630;4.896;2022-12-11T10:59:25;22.83;;;10.88;;
46941;SDS011;32676;52.630;4.896;2022-12-11T11:01:57;27.17;;;11.10;;
46941;SDS011;32676;52.630;4.896;2022-12-11T11:04:26;24.45;;;10.80;;
46941;SDS011;32676;52.630;4.896;2022-12-11T11:07:00;22.25;;;11.98;;
46941;SDS011;32676;52.630;4.896;2022-12-11T11:09:30;23.27;;;11.45;;
46941;SDS011;32676;52.630;4.896;2022-12-11T11:11:59;18.02;;;9.98;;
46941;SDS011;32676;52.630;4.896;2022-12-11T11:14:26;17.70;;;9.85;;
46941;SDS011;32676;52.630;4.896;2022-12-11T11:16:54;21.48;;;10.02;;
46941;SDS011;32676;52.630;4.896;2022-12-11T11:19:23;21.70;;;10.77;;
46941;SDS011;32676;52.630;4.896;2022-12-11T11:21:56;17.90;;;9.85;;
46941;SDS011;32676;52.630;4.896;2022-12-11T11:24:25;17.58;;;9.30;;
46941;SDS011;32676;52.630;4.896;2022-12-11T11:26:57;21.60;;;10.65;;
46941;SDS011;32676;52.630;4.896;2022-12-11T11:29:25;18.75;;;10.30;;
46941;SDS011;32676;52.630;4.896;2022-12-11T11:31:55;16.63;;;8.65;;
46941;SDS011;32676;52.630;4.896;2022-12-11T11:34:24;18.05;;;9.85;;
46941;SDS011;32676;52.630;4.896;2022-12-11T11:36:54;15.23;;;8.23;;
46941;SDS011;32676;52.630;4.896;2022-12-11T11:39:25;14.77;;;7.45;;
46941;SDS011;32676;52.630;4.896;2022-12-11T11:41:57;20.85;;;8.63;;
46941;SDS011;32676;52.630;4.896;2022-12-11T11:44:29;17.25;;;8.35;;
46941;SDS011;32676;52.630;4.896;2022-12-11T11:47:00;13.73;;;7.70;;
46941;SDS011;32676;52.630;4.896;2022-12-11T11:49:35;12.10;;;7.20;;
46941;SDS011;32676;52.630;4.896;2022-12-11T11:52:14;14.50;;;8.30;;
46941;SDS011;32676;52.630;4.896;2022-12-11T11:54:47;13.65;;;8.18;;
46941;SDS011;32676;52.630;4.896;2022-12-11T11:57:22;13.68;;;7.55;;
46941;SDS011;32676;52.630;4.896;2022-12-11T11:59:54;13.23;;;7.78;;
46941;SDS011;32676;52.630;4.896;2022-12-11T12:02:33;16.00;;;8.77;;
46941;SDS011;32676;52.630;4.896;2022-12-11T12:05:00;22.50;;;10.48;;
46941;SDS011;32676;52.630;4.896;2022-12-11T12:07:29;18.42;;;8.90;;
46941;SDS011;32676;52.630;4.896;2022-12-11T12:10:05;24.85;;;9.15;;
46941;SDS011;32676;52.630;4.896;2022-12-11T12:12:42;18.98;;;10.85;;
46941;SDS011;32676;52.630;4.896;2022-12-11T12:15:26;17.75;;;9.68;;
46941;SDS011;32676;52.630;4.896;2022-12-11T12:18:01;19.95;;;10.93;;
46941;SDS011;32676;52.630;4.896;2022-12-11T12:20:37;23.17;;;11.00;;
46941;SDS011;32676;52.630;4.896;2022-12-11T12:23:19;18.02;;;10.50;;
46941;SDS011;32676;52.630;4.896;2022-12-11T12:25:54;19.38;;;10.63;;
46941;SDS011;32676;52.630;4.896;2022-12-11T12:28:34;19.70;;;10.10;;
46941;SDS011;32676;52.630;4.896;2022-12-11T12:31:12;19.70;;;9.95;;
46941;SDS011;32676;52.630;4.896;2022-12-11T12:33:52;22.05;;;9.90;;
46941;SDS011;32676;52.630;4.896;2022-12-11T12:36:26;18.40;;;10.93;;
46941;SDS011;32676;52.630;4.896;2022-12-11T12:39:00;19.73;;;10.77;;
46941;SDS011;32676;52.630;4.896;2022-12-11T12:41:34;17.85;;;9.95;;
46941;SDS011;32676;52.630;4.896;2022-12-11T12:44:12;20.55;;;10.68;;
46941;SDS011;32676;52.630;4.896;2022-12-11T12:46:48;24.95;;;10.80;;
46941;SDS011;32676;52.630;4.896;2022-12-11T12:49:24;18.23;;;9.77;;
46941;SDS011;32676;52.630;4.896;2022-12-11T12:51:58;19.95;;;9.45;;
46941;SDS011;32676;52.630;4.896;2022-12-11T12:54:25;18.52;;;9.32;;
46941;SDS011;32676;52.630;4.896;2022-12-11T12:56:55;19.20;;;10.75;;
46941;SDS011;32676;52.630;4.896;2022-12-11T12:59:25;21.20;;;10.15;;
46941;SDS011;32676;52.630;4.896;2022-12-11T13:01:53;23.75;;;11.57;;
46941;SDS011;32676;52.630;4.896;2022-12-11T13:04:33;20.33;;;9.07;;
46941;SDS011;32676;52.630;4.896;2022-12-11T13:07:11;25.27;;;11.05;;
46941;SDS011;32676;52.630;4.896;2022-12-11T13:09:41;21.40;;;11.18;;
46941;SDS011;32676;52.630;4.896;2022-12-11T13:12:12;24.83;;;13.55;;
46941;SDS011;32676;52.630;4.896;2022-12-11T13:14:41;23.77;;;11.95;;
46941;SDS011;32676;52.630;4.896;2022-12-11T13:17:24;23.73;;;12.25;;
46941;SDS011;32676;52.630;4.896;2022-12-11T13:20:14;22.75;;;10.52;;
46941;SDS011;32676;52.630;4.896;2022-12-11T13:22:46;20.95;;;12.05;;
46941;SDS011;32676;52.630;4.896;2022-12-11T13:25:26;26.70;;;13.32;;
46941;SDS011;32676;52.630;4.896;2022-12-11T13:28:03;28.08;;;13.65;;
46941;SDS011;32676;52.630;4.896;2022-12-11T13:30:33;23.98;;;13.60;;
46941;SDS011;32676;52.630;4.896;2022-12-11T13:33:01;24.92;;;12.77;;
46941;SDS011;32676;52.630;4.896;2022-12-11T13:35:30;22.70;;;10.93;;
46941;SDS011;32676;52.630;4.896;2022-12-11T13:38:00;21.52;;;11.80;;
46941;SDS011;32676;52.630;4.896;2022-12-11T13:40:36;22.60;;;12.40;;
46941;SDS011;32676;52.630;4.896;2022-12-11T13:43:05;27.13;;;12.50;;
46941;SDS011;32676;52.630;4.896;2022-12-11T13:45:44;28.55;;;13.20;;
46941;SDS011;32676;52.630;4.896;2022-12-11T13:48:15;20.48;;;11.10;;
46941;SDS011;32676;52.630;4.896;2022-12-11T13:50:46;22.75;;;13.50;;
46941;SDS011;32676;52.630;4.896;2022-12-11T13:53:14;22.83;;;12.63;;
46941;SDS011;32676;52.630;4.896;2022-12-11T13:55:41;25.73;;;14.98;;
46941;SDS011;32676;52.630;4.896;2022-12-11T13:58:16;26.23;;;14.10;;
46941;SDS011;32676;52.630;4.896;2022-12-11T14:00:53;21.98;;;12.25;;
46941;SDS011;32676;52.630;4.896;2022-12-11T14:03:28;21.92;;;11.68;;
46941;SDS011;32676;52.630;4.896;2022-12-11T14:05:55;21.95;;;12.60;;
46941;SDS011;32676;52.630;4.896;2022-12-11T14:08:23;24.58;;;13.27;;
46941;SDS011;32676;52.630;4.896;2022-12-11T14:10:55;24.15;;;11.73;;
46941;SDS011;32676;52.630;4.896;2022-12-11T14:13:22;22.45;;;11.57;;
46941;SDS011;32676;52.630;4.896;2022-12-11T14:15:52;27.83;;;13.82;;
46941;SDS011;32676;52.630;4.896;2022-12-11T14:18:20;23.13;;;11.68;;
46941;SDS011;32676;52.630;4.896;2022-12-11T14:20:52;21.80;;;11.73;;
46941;SDS011;32676;52.630;4.896;2022-12-11T14:23:21;26.67;;;13.60;;
46941;SDS011;32676;52.630;4.896;2022-12-11T14:25:52;27.98;;;14.48;;
46941;SDS011;32676;52.630;4.896;2022-12-11T14:28:19;26.73;;;12.85;;
46941;SDS011;32676;52.630;4.896;2022-12-11T14:30:48;25.70;;;14.10;;
46941;SDS011;32676;52.630;4.896;2022-12-11T14:33:17;26.33;;;11.95;;
46941;SDS011;32676;52.630;4.896;2022-12-11T14:35:46;20.73;;;12.25;;
46941;SDS011;32676;52.630;4.896;2022-12-11T14:38:15;27.30;;;14.65;;
46941;SDS011;32676;52.630;4.896;2022-12-11T14:41:00;26.75;;;13.30;;
46941;SDS011;32676;52.630;4.896;2022-12-11T14:43:34;30.13;;;14.75;;